sensor_id;sensor_type;location;lat;lon;timestamp;temperature;humidity
72952;HTU21D;61102;51.956;5.878;2023-04-03T00:00:28;8.48;49.32
72952;HTU21D;61102;51.956;5.878;2023-04-03T00:02:54;8.48;49.37
72952;HTU21D;61102;51.956;5.878;2023-04-03T00:05:20;8.42;49.44
72952;HTU21D;61102;51.956;5.878;2023-04-03T00:07:46;8.44;49.39
72952;HTU21D;61102;51.956;5.878;2023-04-03T00:10:12;8.42;49.43
72952;HTU21D;61102;51.956;5.878;2023-04-03T00:12:39;8.39;49.45
72952;HTU21D;61102;51.956;5.878;2023-04-03T00:15:05;8.38;49.47
72952;HTU21D;61102;51.956;5.878;2023-04-03T00:17:32;8.39;49.42
72952;HTU21D;61102;51.956;5.878;2023-04-03T00:19:58;8.37;49.50
72952;HTU21D;61102;51.956;5.878;2023-04-03T00:22:24;8.36;49.49
72952;HTU21D;61102;51.956;5.878;2023-04-03T00:24:52;8.36;49.51
72952;HTU21D;61102;51.956;5.878;2023-04-03T00:27:18;8.37;49.49
72952;HTU21D;61102;51.956;5.878;2023-04-03T00:29:44;8.34;49.54
72952;HTU21D;61102;51.956;5.878;2023-04-03T00:32:10;8.34;49.58
72952;HTU21D;61102;51.956;5.878;2023-04-03T00:34:36;8.34;49.60
72952;HTU21D;61102;51.956;5.878;2023-04-03T00:37:02;8.33;49.63
72952;HTU21D;61102;51.956;5.878;2023-04-03T00:39:28;8.32;49.69
72952;HTU21D;61102;51.956;5.878;2023-04-03T00:41:54;8.28;49.77
72952;HTU21D;61102;51.956;5.878;2023-04-03T00:46:59;8.23;49.95
72952;HTU21D;61102;51.956;5.878;2023-04-03T00:49:26;8.20;50.06
72952;HTU21D;61102;51.956;5.878;2023-04-03T00:51:52;8.21;50.11
72952;HTU21D;61102;51.956;5.878;2023-04-03T00:54:19;8.20;50.11
72952;HTU21D;61102;51.956;5.878;2023-04-03T00:56:45;8.18;50.16
72952;HTU21D;61102;51.956;5.878;2023-04-03T00:59:15;8.15;50.37
72952;HTU21D;61102;51.956;5.878;2023-04-03T01:01:42;8.14;50.37
72952;HTU21D;61102;51.956;5.878;2023-04-03T01:04:28;8.15;50.62
72952;HTU21D;61102;51.956;5.878;2023-04-03T01:07:01;8.14;50.66
72952;HTU21D;61102;51.956;5.878;2023-04-03T01:09:28;8.09;50.57
72952;HTU21D;61102;51.956;5.878;2023-04-03T01:12:20;8.13;50.82
72952;HTU21D;61102;51.956;5.878;2023-04-03T01:14:53;8.07;50.92
72952;HTU21D;61102;51.956;5.878;2023-04-03T01:17:37;8.04;50.97
72952;HTU21D;61102;51.956;5.878;2023-04-03T01:25:49;7.94;51.31
72952;HTU21D;61102;51.956;5.878;2023-04-03T01:28:28;7.93;51.43
72952;HTU21D;61102;51.956;5.878;2023-04-03T01:33:37;7.89;51.43
72952;HTU21D;61102;51.956;5.878;2023-04-03T01:36:04;7.86;51.50
72952;HTU21D;61102;51.956;5.878;2023-04-03T01:38:31;7.85;51.57
72952;HTU21D;61102;51.956;5.878;2023-04-03T01:40:58;7.81;51.62
72952;HTU21D;61102;51.956;5.878;2023-04-03T01:43:24;7.79;51.75
72952;HTU21D;61102;51.956;5.878;2023-04-03T01:45:50;7.78;51.85
72952;HTU21D;61102;51.956;5.878;2023-04-03T01:48:18;7.78;51.91
72952;HTU21D;61102;51.956;5.878;2023-04-03T01:50:44;7.79;52.06
72952;HTU21D;61102;51.956;5.878;2023-04-03T01:53:10;7.73;52.09
72952;HTU21D;61102;51.956;5.878;2023-04-03T01:55:36;7.71;52.26
72952;HTU21D;61102;51.956;5.878;2023-04-03T01:58:03;7.69;52.28
72952;HTU21D;61102;51.956;5.878;2023-04-03T02:00:29;7.68;52.31
72952;HTU21D;61102;51.956;5.878;2023-04-03T02:02:55;7.69;52.46
72952;HTU21D;61102;51.956;5.878;2023-04-03T02:05:22;7.64;52.46
72952;HTU21D;61102;51.956;5.878;2023-04-03T02:07:49;7.62;52.49
72952;HTU21D;61102;51.956;5.878;2023-04-03T02:10:16;7.60;52.62
72952;HTU21D;61102;51.956;5.878;2023-04-03T02:12:42;7.59;52.72
72952;HTU21D;61102;51.956;5.878;2023-04-03T02:15:08;7.56;52.69
72952;HTU21D;61102;51.956;5.878;2023-04-03T02:17:35;7.54;52.81
72952;HTU21D;61102;51.956;5.878;2023-04-03T02:20:02;7.54;52.85
72952;HTU21D;61102;51.956;5.878;2023-04-03T02:22:29;7.49;53.03
72952;HTU21D;61102;51.956;5.878;2023-04-03T02:24:55;7.48;53.01
72952;HTU21D;61102;51.956;5.878;2023-04-03T02:27:21;7.48;53.01
72952;HTU21D;61102;51.956;5.878;2023-04-03T02:29:48;7.46;53.03
72952;HTU21D;61102;51.956;5.878;2023-04-03T02:32:14;7.44;53.19
72952;HTU21D;61102;51.956;5.878;2023-04-03T02:34:40;7.42;53.28
72952;HTU21D;61102;51.956;5.878;2023-04-03T02:37:08;7.41;53.28
72952;HTU21D;61102;51.956;5.878;2023-04-03T02:39:34;7.41;53.38
72952;HTU21D;61102;51.956;5.878;2023-04-03T02:42:00;7.41;53.51
72952;HTU21D;61102;51.956;5.878;2023-04-03T02:44:27;7.41;53.46
72952;HTU21D;61102;51.956;5.878;2023-04-03T02:46:53;7.37;53.53
72952;HTU21D;61102;51.956;5.878;2023-04-03T02:49:19;7.37;53.59
72952;HTU21D;61102;51.956;5.878;2023-04-03T02:51:46;7.34;53.59
72952;HTU21D;61102;51.956;5.878;2023-04-03T02:54:12;7.33;53.57
72952;HTU21D;61102;51.956;5.878;2023-04-03T02:56:42;7.34;53.60
72952;HTU21D;61102;51.956;5.878;2023-04-03T02:59:08;7.30;53.68
72952;HTU21D;61102;51.956;5.878;2023-04-03T03:01:37;7.29;53.68
72952;HTU21D;61102;51.956;5.878;2023-04-03T03:04:03;7.27;53.79
72952;HTU21D;61102;51.956;5.878;2023-04-03T03:06:29;7.25;53.88
72952;HTU21D;61102;51.956;5.878;2023-04-03T03:08:55;7.24;54.01
72952;HTU21D;61102;51.956;5.878;2023-04-03T03:11:21;7.23;53.97
72952;HTU21D;61102;51.956;5.878;2023-04-03T03:13:47;7.20;54.06
72952;HTU21D;61102;51.956;5.878;2023-04-03T03:16:20;7.20;54.49
72952;HTU21D;61102;51.956;5.878;2023-04-03T03:18:46;7.18;54.26
72952;HTU21D;61102;51.956;5.878;2023-04-03T03:21:12;7.18;54.37
72952;HTU21D;61102;51.956;5.878;2023-04-03T03:23:38;7.16;54.47
72952;HTU21D;61102;51.956;5.878;2023-04-03T03:26:08;7.14;54.54
72952;HTU21D;61102;51.956;5.878;2023-04-03T03:28:36;7.15;54.46
72952;HTU21D;61102;51.956;5.878;2023-04-03T03:31:02;7.13;54.53
72952;HTU21D;61102;51.956;5.878;2023-04-03T03:33:30;7.12;54.45
72952;HTU21D;61102;51.956;5.878;2023-04-03T03:35:57;7.09;54.59
72952;HTU21D;61102;51.956;5.878;2023-04-03T03:38:23;7.07;54.63
72952;HTU21D;61102;51.956;5.878;2023-04-03T03:40:50;7.04;54.69
72952;HTU21D;61102;51.956;5.878;2023-04-03T03:43:18;7.03;54.74
72952;HTU21D;61102;51.956;5.878;2023-04-03T03:45:53;7.00;54.87
72952;HTU21D;61102;51.956;5.878;2023-04-03T03:48:20;6.99;54.91
72952;HTU21D;61102;51.956;5.878;2023-04-03T03:50:47;6.97;54.87
72952;HTU21D;61102;51.956;5.878;2023-04-03T03:53:14;6.96;54.93
72952;HTU21D;61102;51.956;5.878;2023-04-03T03:55:41;6.97;55.00
72952;HTU21D;61102;51.956;5.878;2023-04-03T03:58:07;6.94;55.04
72952;HTU21D;61102;51.956;5.878;2023-04-03T04:00:34;6.91;55.00
72952;HTU21D;61102;51.956;5.878;2023-04-03T04:03:01;6.91;54.94
72952;HTU21D;61102;51.956;5.878;2023-04-03T04:05:30;6.88;55.00
72952;HTU21D;61102;51.956;5.878;2023-04-03T04:07:58;6.86;54.96
72952;HTU21D;61102;51.956;5.878;2023-04-03T04:10:25;6.85;55.04
72952;HTU21D;61102;51.956;5.878;2023-04-03T04:12:51;6.83;55.06
72952;HTU21D;61102;51.956;5.878;2023-04-03T04:15:20;6.82;55.04
72952;HTU21D;61102;51.956;5.878;2023-04-03T04:17:48;6.78;55.16
72952;HTU21D;61102;51.956;5.878;2023-04-03T04:20:15;6.74;55.23
72952;HTU21D;61102;51.956;5.878;2023-04-03T04:22:53;6.74;55.42
72952;HTU21D;61102;51.956;5.878;2023-04-03T04:25:21;6.72;55.15
72952;HTU21D;61102;51.956;5.878;2023-04-03T04:27:47;6.71;55.20
72952;HTU21D;61102;51.956;5.878;2023-04-03T04:30:15;6.67;55.26
72952;HTU21D;61102;51.956;5.878;2023-04-03T04:32:42;6.63;55.29
72952;HTU21D;61102;51.956;5.878;2023-04-03T04:35:08;6.63;55.38
72952;HTU21D;61102;51.956;5.878;2023-04-03T04:37:39;6.61;55.45
72952;HTU21D;61102;51.956;5.878;2023-04-03T04:40:06;6.57;55.55
72952;HTU21D;61102;51.956;5.878;2023-04-03T04:42:33;6.55;55.64
72952;HTU21D;61102;51.956;5.878;2023-04-03T04:44:59;6.51;55.72
72952;HTU21D;61102;51.956;5.878;2023-04-03T04:47:25;6.50;55.78
72952;HTU21D;61102;51.956;5.878;2023-04-03T04:49:52;6.49;55.69
72952;HTU21D;61102;51.956;5.878;2023-04-03T04:52:18;6.49;55.79
72952;HTU21D;61102;51.956;5.878;2023-04-03T04:54:44;6.44;55.83
72952;HTU21D;61102;51.956;5.878;2023-04-03T04:57:11;6.40;55.79
72952;HTU21D;61102;51.956;5.878;2023-04-03T04:59:37;6.39;55.75
72952;HTU21D;61102;51.956;5.878;2023-04-03T05:02:04;6.38;55.74
72952;HTU21D;61102;51.956;5.878;2023-04-03T05:04:31;6.38;55.76
72952;HTU21D;61102;51.956;5.878;2023-04-03T05:07:03;6.35;55.75
72952;HTU21D;61102;51.956;5.878;2023-04-03T05:09:33;6.35;55.75
72952;HTU21D;61102;51.956;5.878;2023-04-03T05:12:00;6.34;55.76
72952;HTU21D;61102;51.956;5.878;2023-04-03T05:14:32;6.33;55.77
72952;HTU21D;61102;51.956;5.878;2023-04-03T05:17:02;6.31;55.74
72952;HTU21D;61102;51.956;5.878;2023-04-03T05:19:31;6.29;55.71
72952;HTU21D;61102;51.956;5.878;2023-04-03T05:21:58;6.27;55.72
72952;HTU21D;61102;51.956;5.878;2023-04-03T05:24:24;6.27;55.70
72952;HTU21D;61102;51.956;5.878;2023-04-03T05:26:51;6.26;55.68
72952;HTU21D;61102;51.956;5.878;2023-04-03T05:29:17;6.30;55.65
72952;HTU21D;61102;51.956;5.878;2023-04-03T05:31:45;6.31;55.54
72952;HTU21D;61102;51.956;5.878;2023-04-03T05:34:13;6.38;55.42
72952;HTU21D;61102;51.956;5.878;2023-04-03T05:36:40;6.42;55.29
72952;HTU21D;61102;51.956;5.878;2023-04-03T05:39:08;6.50;55.12
72952;HTU21D;61102;51.956;5.878;2023-04-03T05:41:37;6.59;54.94
72952;HTU21D;61102;51.956;5.878;2023-04-03T05:44:04;6.68;54.78
72952;HTU21D;61102;51.956;5.878;2023-04-03T05:46:30;6.75;54.59
72952;HTU21D;61102;51.956;5.878;2023-04-03T05:48:59;6.85;54.25
72952;HTU21D;61102;51.956;5.878;2023-04-03T05:51:34;6.90;54.34
72952;HTU21D;61102;51.956;5.878;2023-04-03T05:54:12;7.02;54.10
72952;HTU21D;61102;51.956;5.878;2023-04-03T05:56:40;7.13;53.73
72952;HTU21D;61102;51.956;5.878;2023-04-03T05:59:06;7.19;53.62
72952;HTU21D;61102;51.956;5.878;2023-04-03T06:01:33;7.26;53.40
72952;HTU21D;61102;51.956;5.878;2023-04-03T06:04:00;7.31;53.22
72952;HTU21D;61102;51.956;5.878;2023-04-03T06:06:47;7.45;53.14
72952;HTU21D;61102;51.956;5.878;2023-04-03T06:09:15;7.45;53.01
72952;HTU21D;61102;51.956;5.878;2023-04-03T06:11:42;7.55;52.65
72952;HTU21D;61102;51.956;5.878;2023-04-03T06:14:08;7.58;52.72
72952;HTU21D;61102;51.956;5.878;2023-04-03T06:16:34;7.62;52.51
72952;HTU21D;61102;51.956;5.878;2023-04-03T06:19:00;7.69;52.41
72952;HTU21D;61102;51.956;5.878;2023-04-03T06:21:27;7.71;52.24
72952;HTU21D;61102;51.956;5.878;2023-04-03T06:23:53;7.75;52.11
72952;HTU21D;61102;51.956;5.878;2023-04-03T06:26:19;7.81;52.04
72952;HTU21D;61102;51.956;5.878;2023-04-03T06:28:46;7.86;51.79
72952;HTU21D;61102;51.956;5.878;2023-04-03T06:31:12;7.88;51.82
72952;HTU21D;61102;51.956;5.878;2023-04-03T06:33:38;7.96;51.66
72952;HTU21D;61102;51.956;5.878;2023-04-03T06:36:05;7.99;51.50
72952;HTU21D;61102;51.956;5.878;2023-04-03T06:38:32;8.06;51.28
72952;HTU21D;61102;51.956;5.878;2023-04-03T06:40:58;8.12;51.33
72952;HTU21D;61102;51.956;5.878;2023-04-03T06:43:24;8.20;51.01
72952;HTU21D;61102;51.956;5.878;2023-04-03T06:45:50;8.23;50.89
72952;HTU21D;61102;51.956;5.878;2023-04-03T06:48:17;8.29;50.82
72952;HTU21D;61102;51.956;5.878;2023-04-03T06:50:43;8.38;50.65
72952;HTU21D;61102;51.956;5.878;2023-04-03T06:53:09;8.49;50.37
72952;HTU21D;61102;51.956;5.878;2023-04-03T06:55:35;8.60;50.23
72952;HTU21D;61102;51.956;5.878;2023-04-03T06:58:02;8.62;50.02
72952;HTU21D;61102;51.956;5.878;2023-04-03T07:00:29;8.63;49.47
72952;HTU21D;61102;51.956;5.878;2023-04-03T07:02:56;8.62;49.34
72952;HTU21D;61102;51.956;5.878;2023-04-03T07:05:24;8.67;49.19
72952;HTU21D;61102;51.956;5.878;2023-04-03T07:07:50;8.71;48.74
72952;HTU21D;61102;51.956;5.878;2023-04-03T07:10:17;8.74;48.59
72952;HTU21D;61102;51.956;5.878;2023-04-03T07:12:43;8.80;48.15
72952;HTU21D;61102;51.956;5.878;2023-04-03T07:15:10;8.85;48.33
72952;HTU21D;61102;51.956;5.878;2023-04-03T07:17:41;8.95;48.05
72952;HTU21D;61102;51.956;5.878;2023-04-03T07:20:08;9.00;47.72
72952;HTU21D;61102;51.956;5.878;2023-04-03T07:22:34;9.06;47.65
72952;HTU21D;61102;51.956;5.878;2023-04-03T07:25:00;9.16;47.47
72952;HTU21D;61102;51.956;5.878;2023-04-03T07:27:27;9.21;47.33
72952;HTU21D;61102;51.956;5.878;2023-04-03T07:29:53;9.29;46.83
72952;HTU21D;61102;51.956;5.878;2023-04-03T07:32:19;9.33;46.87
72952;HTU21D;61102;51.956;5.878;2023-04-03T07:34:45;9.40;46.18
72952;HTU21D;61102;51.956;5.878;2023-04-03T07:37:14;9.47;46.26
72952;HTU21D;61102;51.956;5.878;2023-04-03T07:39:44;9.55;46.29
72952;HTU21D;61102;51.956;5.878;2023-04-03T07:42:10;9.70;45.89
72952;HTU21D;61102;51.956;5.878;2023-04-03T07:44:38;9.84;45.54
72952;HTU21D;61102;51.956;5.878;2023-04-03T07:47:04;9.93;44.90
72952;HTU21D;61102;51.956;5.878;2023-04-03T07:49:30;9.98;44.29
72952;HTU21D;61102;51.956;5.878;2023-04-03T07:51:57;10.06;44.41
72952;HTU21D;61102;51.956;5.878;2023-04-03T07:54:24;10.10;44.08
72952;HTU21D;61102;51.956;5.878;2023-04-03T07:56:50;10.16;44.08
72952;HTU21D;61102;51.956;5.878;2023-04-03T07:59:16;10.30;44.23
72952;HTU21D;61102;51.956;5.878;2023-04-03T08:01:42;10.41;42.96
72952;HTU21D;61102;51.956;5.878;2023-04-03T08:04:08;10.52;43.24
72952;HTU21D;61102;51.956;5.878;2023-04-03T08:06:34;10.55;42.63
72952;HTU21D;61102;51.956;5.878;2023-04-03T08:09:03;10.65;42.57
72952;HTU21D;61102;51.956;5.878;2023-04-03T08:11:29;11.18;39.72
72952;HTU21D;61102;51.956;5.878;2023-04-03T08:13:56;10.81;40.91
72952;HTU21D;61102;51.956;5.878;2023-04-03T08:16:24;10.74;40.88
72952;HTU21D;61102;51.956;5.878;2023-04-03T08:18:53;10.83;41.24
72952;HTU21D;61102;51.956;5.878;2023-04-03T08:21:20;10.93;40.22
72952;HTU21D;61102;51.956;5.878;2023-04-03T08:23:49;10.99;40.36
72952;HTU21D;61102;51.956;5.878;2023-04-03T08:26:19;11.10;40.60
72952;HTU21D;61102;51.956;5.878;2023-04-03T08:28:47;11.19;39.29
72952;HTU21D;61102;51.956;5.878;2023-04-03T08:31:16;11.27;39.67
72952;HTU21D;61102;51.956;5.878;2023-04-03T08:33:42;11.42;39.61
72952;HTU21D;61102;51.956;5.878;2023-04-03T08:36:20;11.57;38.93
72952;HTU21D;61102;51.956;5.878;2023-04-03T08:38:47;11.61;37.40
72952;HTU21D;61102;51.956;5.878;2023-04-03T08:49:52;11.83;35.00
72952;HTU21D;61102;51.956;5.878;2023-04-03T08:52:39;11.93;34.97
72952;HTU21D;61102;51.956;5.878;2023-04-03T08:55:26;11.96;34.31
72952;HTU21D;61102;51.956;5.878;2023-04-03T08:58:09;12.10;33.70
72952;HTU21D;61102;51.956;5.878;2023-04-03T09:00:50;12.19;34.50
72952;HTU21D;61102;51.956;5.878;2023-04-03T09:03:19;12.28;34.18
72952;HTU21D;61102;51.956;5.878;2023-04-03T09:06:22;12.44;30.42
72952;HTU21D;61102;51.956;5.878;2023-04-03T09:09:12;12.41;31.48
72952;HTU21D;61102;51.956;5.878;2023-04-03T09:11:55;12.37;31.22
72952;HTU21D;61102;51.956;5.878;2023-04-03T09:14:38;12.33;29.87
72952;HTU21D;61102;51.956;5.878;2023-04-03T09:17:35;12.38;30.38
72952;HTU21D;61102;51.956;5.878;2023-04-03T09:20:17;12.48;29.55
72952;HTU21D;61102;51.956;5.878;2023-04-03T09:22:45;12.45;27.23
72952;HTU21D;61102;51.956;5.878;2023-04-03T09:25:18;12.49;27.09
72952;HTU21D;61102;51.956;5.878;2023-04-03T09:27:45;12.43;26.27
72952;HTU21D;61102;51.956;5.878;2023-04-03T09:30:20;12.44;26.39
72952;HTU21D;61102;51.956;5.878;2023-04-03T09:32:52;12.44;26.94
72952;HTU21D;61102;51.956;5.878;2023-04-03T09:35:31;12.60;26.25
72952;HTU21D;61102;51.956;5.878;2023-04-03T09:38:01;12.57;25.80
72952;HTU21D;61102;51.956;5.878;2023-04-03T09:42:56;12.60;25.50
72952;HTU21D;61102;51.956;5.878;2023-04-03T09:50:53;12.63;25.82
72952;HTU21D;61102;51.956;5.878;2023-04-03T09:53:39;12.73;24.69
72952;HTU21D;61102;51.956;5.878;2023-04-03T09:59:34;12.71;24.74
72952;HTU21D;61102;51.956;5.878;2023-04-03T10:04:42;12.81;25.49
72952;HTU21D;61102;51.956;5.878;2023-04-03T10:07:35;12.99;25.02
72952;HTU21D;61102;51.956;5.878;2023-04-03T10:10:22;13.05;25.29
72952;HTU21D;61102;51.956;5.878;2023-04-03T10:13:12;13.09;24.17
72952;HTU21D;61102;51.956;5.878;2023-04-03T10:15:44;13.10;24.58
72952;HTU21D;61102;51.956;5.878;2023-04-03T10:20:51;13.25;23.76
72952;HTU21D;61102;51.956;5.878;2023-04-03T10:23:22;13.24;24.11
72952;HTU21D;61102;51.956;5.878;2023-04-03T10:29:13;13.38;24.28
72952;HTU21D;61102;51.956;5.878;2023-04-03T10:32:45;13.45;24.08
72952;HTU21D;61102;51.956;5.878;2023-04-03T10:38:01;13.34;24.36
72952;HTU21D;61102;51.956;5.878;2023-04-03T10:43:18;13.52;25.07
72952;HTU21D;61102;51.956;5.878;2023-04-03T10:46:00;13.63;24.24
72952;HTU21D;61102;51.956;5.878;2023-04-03T10:48:37;13.63;24.94
72952;HTU21D;61102;51.956;5.878;2023-04-03T10:54:24;13.83;24.15
72952;HTU21D;61102;51.956;5.878;2023-04-03T10:57:02;13.85;24.22
72952;HTU21D;61102;51.956;5.878;2023-04-03T10:59:32;13.86;24.75
72952;HTU21D;61102;51.956;5.878;2023-04-03T11:02:28;13.99;24.08
72952;HTU21D;61102;51.956;5.878;2023-04-03T11:05:08;13.97;24.05
72952;HTU21D;61102;51.956;5.878;2023-04-03T11:07:46;13.99;24.53
72952;HTU21D;61102;51.956;5.878;2023-04-03T11:10:21;14.06;24.73
72952;HTU21D;61102;51.956;5.878;2023-04-03T11:13:19;14.10;23.72
72952;HTU21D;61102;51.956;5.878;2023-04-03T11:15:44;14.05;23.92
72952;HTU21D;61102;51.956;5.878;2023-04-03T11:24:03;13.92;23.75
72952;HTU21D;61102;51.956;5.878;2023-04-03T11:26:36;13.89;23.58
72952;HTU21D;61102;51.956;5.878;2023-04-03T11:29:11;13.91;23.79
72952;HTU21D;61102;51.956;5.878;2023-04-03T11:34:42;13.92;23.23
72952;HTU21D;61102;51.956;5.878;2023-04-03T11:37:38;13.96;23.14
72952;HTU21D;61102;51.956;5.878;2023-04-03T11:42:45;13.98;23.68
72952;HTU21D;61102;51.956;5.878;2023-04-03T11:50:44;14.19;24.36
72952;HTU21D;61102;51.956;5.878;2023-04-03T11:58:25;14.24;23.63
72952;HTU21D;61102;51.956;5.878;2023-04-03T12:01:08;14.33;23.62
72952;HTU21D;61102;51.956;5.878;2023-04-03T12:14:03;15.16;23.16
72952;HTU21D;61102;51.956;5.878;2023-04-03T12:19:34;15.52;21.62
72952;HTU21D;61102;51.956;5.878;2023-04-03T12:24:49;15.85;21.35
72952;HTU21D;61102;51.956;5.878;2023-04-03T12:33:13;16.20;20.66
72952;HTU21D;61102;51.956;5.878;2023-04-03T12:36:07;16.56;20.66
72952;HTU21D;61102;51.956;5.878;2023-04-03T12:39:06;16.79;20.62
72952;HTU21D;61102;51.956;5.878;2023-04-03T12:41:42;17.02;20.87
72952;HTU21D;61102;51.956;5.878;2023-04-03T12:46:51;17.59;19.97
72952;HTU21D;61102;51.956;5.878;2023-04-03T12:49:32;17.79;19.41
72952;HTU21D;61102;51.956;5.878;2023-04-03T12:52:00;17.89;19.30
72952;HTU21D;61102;51.956;5.878;2023-04-03T12:54:54;18.13;19.50
72952;HTU21D;61102;51.956;5.878;2023-04-03T12:57:25;18.40;19.04
72952;HTU21D;61102;51.956;5.878;2023-04-03T12:59:52;18.57;18.92
72952;HTU21D;61102;51.956;5.878;2023-04-03T13:04:47;19.23;18.77
72952;HTU21D;61102;51.956;5.878;2023-04-03T13:07:29;19.58;17.92
72952;HTU21D;61102;51.956;5.878;2023-04-03T13:10:04;19.53;17.63
72952;HTU21D;61102;51.956;5.878;2023-04-03T13:12:31;19.62;17.67
72952;HTU21D;61102;51.956;5.878;2023-04-03T13:15:00;19.96;17.60
72952;HTU21D;61102;51.956;5.878;2023-04-03T13:17:27;20.16;17.35
72952;HTU21D;61102;51.956;5.878;2023-04-03T13:19:54;20.43;17.32
72952;HTU21D;61102;51.956;5.878;2023-04-03T13:22:28;20.63;17.02
72952;HTU21D;61102;51.956;5.878;2023-04-03T13:24:58;20.66;16.15
72952;HTU21D;61102;51.956;5.878;2023-04-03T13:27:24;20.34;16.35
72952;HTU21D;61102;51.956;5.878;2023-04-03T13:29:53;20.26;16.93
72952;HTU21D;61102;51.956;5.878;2023-04-03T13:32:23;20.21;17.03
72952;HTU21D;61102;51.956;5.878;2023-04-03T13:34:49;20.27;17.06
72952;HTU21D;61102;51.956;5.878;2023-04-03T13:37:31;20.36;16.62
72952;HTU21D;61102;51.956;5.878;2023-04-03T13:42:31;20.43;16.80
72952;HTU21D;61102;51.956;5.878;2023-04-03T13:45:17;20.86;17.06
72952;HTU21D;61102;51.956;5.878;2023-04-03T13:47:47;21.22;16.63
72952;HTU21D;61102;51.956;5.878;2023-04-03T13:50:23;21.55;16.52
72952;HTU21D;61102;51.956;5.878;2023-04-03T13:53:03;21.76;15.07
72952;HTU21D;61102;51.956;5.878;2023-04-03T13:55:36;21.48;15.37
72952;HTU21D;61102;51.956;5.878;2023-04-03T13:58:21;21.40;15.16
72952;HTU21D;61102;51.956;5.878;2023-04-03T14:01:15;21.28;15.51
72952;HTU21D;61102;51.956;5.878;2023-04-03T14:03:43;21.48;15.77
72952;HTU21D;61102;51.956;5.878;2023-04-03T14:06:12;21.54;15.45
72952;HTU21D;61102;51.956;5.878;2023-04-03T14:08:39;21.51;15.79
72952;HTU21D;61102;51.956;5.878;2023-04-03T14:11:05;21.75;16.03
72952;HTU21D;61102;51.956;5.878;2023-04-03T14:13:32;21.66;15.76
72952;HTU21D;61102;51.956;5.878;2023-04-03T14:15:58;20.59;16.93
72952;HTU21D;61102;51.956;5.878;2023-04-03T14:18:24;19.23;18.72
72952;HTU21D;61102;51.956;5.878;2023-04-03T14:20:50;18.08;20.06
72952;HTU21D;61102;51.956;5.878;2023-04-03T14:23:16;17.18;21.02
72952;HTU21D;61102;51.956;5.878;2023-04-03T14:25:42;16.45;21.79
72952;HTU21D;61102;51.956;5.878;2023-04-03T14:28:21;15.77;23.04
72952;HTU21D;61102;51.956;5.878;2023-04-03T14:30:49;15.31;23.71
72952;HTU21D;61102;51.956;5.878;2023-04-03T14:33:19;14.96;24.40
72952;HTU21D;61102;51.956;5.878;2023-04-03T14:35:46;14.66;25.03
72952;HTU21D;61102;51.956;5.878;2023-04-03T14:38:30;14.45;25.70
72952;HTU21D;61102;51.956;5.878;2023-04-03T14:40:57;14.26;26.00
72952;HTU21D;61102;51.956;5.878;2023-04-03T14:43:24;14.11;25.92
72952;HTU21D;61102;51.956;5.878;2023-04-03T14:45:51;13.97;25.96
72952;HTU21D;61102;51.956;5.878;2023-04-03T14:48:23;13.79;26.68
72952;HTU21D;61102;51.956;5.878;2023-04-03T14:50:51;13.70;26.48
72952;HTU21D;61102;51.956;5.878;2023-04-03T14:53:18;13.56;26.70
72952;HTU21D;61102;51.956;5.878;2023-04-03T14:55:49;13.53;27.23
72952;HTU21D;61102;51.956;5.878;2023-04-03T14:58:17;13.43;27.34
72952;HTU21D;61102;51.956;5.878;2023-04-03T15:00:44;13.40;27.67
72952;HTU21D;61102;51.956;5.878;2023-04-03T15:03:20;13.34;27.60
72952;HTU21D;61102;51.956;5.878;2023-04-03T15:05:47;13.25;27.67
72952;HTU21D;61102;51.956;5.878;2023-04-03T15:08:20;13.23;28.11
72952;HTU21D;61102;51.956;5.878;2023-04-03T15:10:47;13.23;27.80
72952;HTU21D;61102;51.956;5.878;2023-04-03T15:13:13;13.12;27.93
72952;HTU21D;61102;51.956;5.878;2023-04-03T15:15:40;13.09;28.09
72952;HTU21D;61102;51.956;5.878;2023-04-03T15:18:06;13.03;28.44
72952;HTU21D;61102;51.956;5.878;2023-04-03T15:20:32;12.96;28.81
72952;HTU21D;61102;51.956;5.878;2023-04-03T15:23:00;12.94;29.08
72952;HTU21D;61102;51.956;5.878;2023-04-03T15:25:27;12.95;29.04
72952;HTU21D;61102;51.956;5.878;2023-04-03T15:27:54;12.93;29.03
72952;HTU21D;61102;51.956;5.878;2023-04-03T15:30:20;12.94;29.03
72952;HTU21D;61102;51.956;5.878;2023-04-03T15:32:47;12.91;29.02
72952;HTU21D;61102;51.956;5.878;2023-04-03T15:35:14;12.89;29.22
72952;HTU21D;61102;51.956;5.878;2023-04-03T15:37:41;12.87;29.31
72952;HTU21D;61102;51.956;5.878;2023-04-03T15:40:08;12.88;29.71
72952;HTU21D;61102;51.956;5.878;2023-04-03T15:42:35;12.91;29.80
72952;HTU21D;61102;51.956;5.878;2023-04-03T15:45:01;12.93;29.74
72952;HTU21D;61102;51.956;5.878;2023-04-03T15:47:27;12.93;29.57
72952;HTU21D;61102;51.956;5.878;2023-04-03T15:49:54;12.92;29.72
72952;HTU21D;61102;51.956;5.878;2023-04-03T15:52:20;12.92;29.77
72952;HTU21D;61102;51.956;5.878;2023-04-03T15:54:46;12.93;29.75
72952;HTU21D;61102;51.956;5.878;2023-04-03T15:57:13;12.87;30.02
72952;HTU21D;61102;51.956;5.878;2023-04-03T15:59:39;12.88;30.09
72952;HTU21D;61102;51.956;5.878;2023-04-03T16:02:08;12.84;30.27
72952;HTU21D;61102;51.956;5.878;2023-04-03T16:04:36;12.81;30.45
72952;HTU21D;61102;51.956;5.878;2023-04-03T16:07:03;12.76;30.54
72952;HTU21D;61102;51.956;5.878;2023-04-03T16:09:30;12.76;30.30
72952;HTU21D;61102;51.956;5.878;2023-04-03T16:11:57;12.78;30.42
72952;HTU21D;61102;51.956;5.878;2023-04-03T16:14:23;12.76;30.33
72952;HTU21D;61102;51.956;5.878;2023-04-03T16:16:49;12.75;30.38
72952;HTU21D;61102;51.956;5.878;2023-04-03T16:19:15;12.73;30.35
72952;HTU21D;61102;51.956;5.878;2023-04-03T16:21:41;12.65;30.18
72952;HTU21D;61102;51.956;5.878;2023-04-03T16:24:08;12.60;30.48
72952;HTU21D;61102;51.956;5.878;2023-04-03T16:26:34;12.59;30.39
72952;HTU21D;61102;51.956;5.878;2023-04-03T16:29:00;12.56;30.46
72952;HTU21D;61102;51.956;5.878;2023-04-03T16:31:26;12.52;30.71
72952;HTU21D;61102;51.956;5.878;2023-04-03T16:33:54;12.52;30.77
72952;HTU21D;61102;51.956;5.878;2023-04-03T16:36:20;12.51;30.74
72952;HTU21D;61102;51.956;5.878;2023-04-03T16:38:46;12.47;30.72
72952;HTU21D;61102;51.956;5.878;2023-04-03T16:41:12;12.43;30.83
72952;HTU21D;61102;51.956;5.878;2023-04-03T16:43:38;12.40;30.68
72952;HTU21D;61102;51.956;5.878;2023-04-03T16:46:05;12.37;30.80
72952;HTU21D;61102;51.956;5.878;2023-04-03T16:48:34;12.34;30.83
72952;HTU21D;61102;51.956;5.878;2023-04-03T16:51:00;12.32;30.56
72952;HTU21D;61102;51.956;5.878;2023-04-03T16:53:26;12.27;30.75
72952;HTU21D;61102;51.956;5.878;2023-04-03T16:55:53;12.29;30.87
72952;HTU21D;61102;51.956;5.878;2023-04-03T16:58:19;12.29;31.09
72952;HTU21D;61102;51.956;5.878;2023-04-03T17:00:46;12.30;30.91
72952;HTU21D;61102;51.956;5.878;2023-04-03T17:03:13;12.25;31.06
72952;HTU21D;61102;51.956;5.878;2023-04-03T17:05:39;12.23;31.25
72952;HTU21D;61102;51.956;5.878;2023-04-03T17:08:05;12.21;31.31
72952;HTU21D;61102;51.956;5.878;2023-04-03T17:10:31;12.19;31.23
72952;HTU21D;61102;51.956;5.878;2023-04-03T17:12:59;12.15;31.41
72952;HTU21D;61102;51.956;5.878;2023-04-03T17:15:25;12.14;31.53
72952;HTU21D;61102;51.956;5.878;2023-04-03T17:17:52;12.10;31.67